< < Back
Terminal Aerodrome Forecast


Current Version              Previous Versions:   1  2  3  4  5  6  7  8  9  

Terminal Aerodrome Forecast

871
FTUS42 KFFC 101120
TAFFTY
TAF
KFTY 101120Z 1012/1112 30010G18KT P6SM FEW028 BKN035
     FM101400 29012G20KT P6SM BKN040
     FM101800 28014G24KT P6SM SCT060
     FM110000 27010KT P6SM SCT100
     FM110600 27004KT P6SM SCT250=

Latest METAR

749
SAUS70 KWBC 110200 RRE
MTRFTY
METAR KFTY 110153Z 33007KT 10SM OVC060 01/M12 A3015 RMK AO2 SLP215
T00111122


USA.gov is the U.S. government's official web portal to all federal, state and local government web resources and services.